createdAt,value
2023-02-06T00:01:43.370Z,8.85
2023-02-06T00:04:12.153Z,9.38
2023-02-06T00:06:40.531Z,9.07
2023-02-06T00:09:09.105Z,9.05
2023-02-06T00:11:37.946Z,10.45
2023-02-06T00:14:07.173Z,10.60
2023-02-06T00:16:37.242Z,9.50
2023-02-06T00:19:05.924Z,10.00
2023-02-06T00:21:35.801Z,9.23
2023-02-06T00:24:04.812Z,10.73
2023-02-06T00:26:33.651Z,9.82
2023-02-06T00:29:05.001Z,9.52
2023-02-06T00:31:33.794Z,9.82
2023-02-06T00:34:04.412Z,10.05
2023-02-06T00:36:34.415Z,10.02
2023-02-06T00:39:03.204Z,9.70
2023-02-06T00:41:31.757Z,11.10
2023-02-06T00:44:00.061Z,10.95
2023-02-06T00:46:28.447Z,10.85
2023-02-06T00:48:56.794Z,10.40
2023-02-06T00:51:26.688Z,11.77
2023-02-06T00:53:54.935Z,10.95
2023-02-06T00:56:23.358Z,10.95
2023-02-06T00:58:52.099Z,10.00
2023-02-06T01:01:20.533Z,11.20
2023-02-06T01:03:48.811Z,11.43
2023-02-06T01:06:17.189Z,10.80
2023-02-06T01:08:47.321Z,9.88
2023-02-06T01:11:18.400Z,11.73
2023-02-06T01:13:46.838Z,10.95
2023-02-06T01:16:20.344Z,11.00
2023-02-06T01:18:50.223Z,10.43
2023-02-06T01:21:21.434Z,9.55
2023-02-06T01:23:53.848Z,10.18
2023-02-06T01:26:24.612Z,10.15
2023-02-06T01:28:53.019Z,10.20
2023-02-06T01:31:23.939Z,10.80
2023-02-06T01:33:52.964Z,10.73
2023-02-06T01:36:21.921Z,10.88
2023-02-06T01:38:52.816Z,10.63
2023-02-06T01:41:24.064Z,10.65
2023-02-06T01:44:10.689Z,10.23
2023-02-06T01:46:39.862Z,11.85
2023-02-06T01:49:11.296Z,11.75
2023-02-06T01:51:40.981Z,11.38
2023-02-06T01:54:11.607Z,10.02
2023-02-06T01:56:44.533Z,10.60
2023-02-06T01:59:13.699Z,10.68
2023-02-06T02:01:42.818Z,10.80
2023-02-06T02:04:17.458Z,10.07
2023-02-06T02:06:50.757Z,11.32
2023-02-06T02:09:21.668Z,10.68
2023-02-06T02:11:49.931Z,11.45
2023-02-06T02:14:18.768Z,10.00
2023-02-06T02:17:02.382Z,11.02
2023-02-06T02:20:06.445Z,9.88
2023-02-06T02:22:52.671Z,10.68
2023-02-06T02:25:58.290Z,10.70
2023-02-06T02:29:04.309Z,9.73
2023-02-06T02:31:57.519Z,10.88
2023-02-06T02:34:55.395Z,9.88
2023-02-06T02:37:33.477Z,10.70
2023-02-06T02:40:11.866Z,9.70
2023-02-06T02:42:48.862Z,10.18
2023-02-06T02:45:22.427Z,10.52
2023-02-06T02:47:57.544Z,9.85
2023-02-06T02:50:29.004Z,9.77
2023-02-06T02:52:59.582Z,9.55
2023-02-06T02:55:27.915Z,10.75
2023-02-06T02:58:06.530Z,10.60
2023-02-06T03:00:41.255Z,9.88
2023-02-06T03:03:11.931Z,10.77
2023-02-06T03:06:03.950Z,11.10
2023-02-06T03:08:43.592Z,11.00
2023-02-06T03:11:14.991Z,12.02
2023-02-06T03:13:50.168Z,11.18
2023-02-06T03:16:23.641Z,10.38
2023-02-06T03:18:58.393Z,10.38
2023-02-06T03:21:30.319Z,11.45
2023-02-06T03:24:04.428Z,11.30
2023-02-06T03:26:33.749Z,11.50
2023-02-06T03:29:05.444Z,12.07
2023-02-06T03:31:37.337Z,13.10
2023-02-06T03:34:13.673Z,12.90
2023-02-06T03:36:44.106Z,13.70
2023-02-06T03:39:13.068Z,14.13
2023-02-06T03:41:42.981Z,14.88
2023-02-06T03:44:17.561Z,13.82
2023-02-06T03:46:47.374Z,12.27
2023-02-06T03:49:18.674Z,12.57
2023-02-06T03:51:52.927Z,12.23
2023-02-06T03:54:24.725Z,13.65
2023-02-06T03:56:54.983Z,13.18
2023-02-06T03:59:23.452Z,13.55
2023-02-06T04:01:55.181Z,12.90
2023-02-06T04:04:29.301Z,12.82
2023-02-06T04:07:01.873Z,13.38
2023-02-06T04:09:30.176Z,13.50
2023-02-06T04:11:58.421Z,14.93
2023-02-06T04:14:26.818Z,12.82
2023-02-06T04:16:56.404Z,13.30
2023-02-06T04:19:24.895Z,14.48
2023-02-06T04:21:53.350Z,13.15
2023-02-06T04:24:23.111Z,13.57
2023-02-06T04:26:51.764Z,12.52
2023-02-06T04:29:20.251Z,11.98
2023-02-06T04:31:48.778Z,12.02
2023-02-06T04:34:17.048Z,11.73
2023-02-06T04:36:45.729Z,12.25
2023-02-06T04:39:14.272Z,10.35
2023-02-06T04:41:44.673Z,11.82
2023-02-06T04:44:13.106Z,12.15
2023-02-06T04:46:43.316Z,12.85
2023-02-06T04:49:11.722Z,9.90
2023-02-06T04:51:40.123Z,11.27
2023-02-06T04:54:08.843Z,10.27
2023-02-06T04:56:37.099Z,10.68
2023-02-06T04:59:07.166Z,10.98
2023-02-06T05:01:36.660Z,11.07
2023-02-06T05:04:05.577Z,11.23
2023-02-06T05:06:34.039Z,12.35
2023-02-06T05:09:04.061Z,11.32
2023-02-06T05:11:32.581Z,11.90
2023-02-06T05:14:00.754Z,11.45
2023-02-06T05:16:30.565Z,11.55
2023-02-06T05:18:58.926Z,12.40
2023-02-06T05:21:28.697Z,10.38
2023-02-06T05:23:57.247Z,11.98
2023-02-06T05:26:25.480Z,9.88
2023-02-06T05:28:54.114Z,12.55
2023-02-06T05:31:22.689Z,11.75
2023-02-06T05:33:52.988Z,13.07
2023-02-06T05:36:22.317Z,12.13
2023-02-06T05:38:50.881Z,13.02
2023-02-06T05:41:19.947Z,12.10
2023-02-06T05:43:48.444Z,11.80
2023-02-06T05:46:16.935Z,12.05
2023-02-06T05:48:45.256Z,12.45
2023-02-06T05:51:16.060Z,11.90
2023-02-06T05:53:44.959Z,11.97
2023-02-06T05:56:13.314Z,12.45
2023-02-06T05:58:41.526Z,13.43
2023-02-06T06:01:11.386Z,13.05
2023-02-06T06:03:39.692Z,13.05
2023-02-06T06:06:09.283Z,13.35
2023-02-06T06:08:38.980Z,13.65
2023-02-06T06:11:08.214Z,14.65
2023-02-06T06:13:36.748Z,12.43
2023-02-06T06:16:06.538Z,15.40
2023-02-06T06:18:34.878Z,16.75
2023-02-06T06:21:03.397Z,17.92
2023-02-06T06:23:31.676Z,17.92
2023-02-06T06:26:01.772Z,16.58
2023-02-06T06:28:30.188Z,17.02
2023-02-06T06:31:02.802Z,16.10
2023-02-06T06:33:31.595Z,16.67
2023-02-06T06:36:00.334Z,17.65
2023-02-06T06:38:28.488Z,17.08
2023-02-06T06:40:57.008Z,17.20
2023-02-06T06:43:28.698Z,16.70
2023-02-06T06:45:57.285Z,15.95
2023-02-06T06:48:25.854Z,14.27
2023-02-06T06:50:54.172Z,15.80
2023-02-06T06:53:23.017Z,14.48
2023-02-06T06:55:51.586Z,13.77
2023-02-06T06:58:20.033Z,14.85
2023-02-06T07:00:50.062Z,14.27
2023-02-06T07:03:18.958Z,14.63
2023-02-06T07:05:47.514Z,15.05
2023-02-06T07:08:15.925Z,16.15
2023-02-06T07:10:46.835Z,15.18
2023-02-06T07:13:15.698Z,14.43
2023-02-06T07:15:44.588Z,15.23
2023-02-06T07:18:14.358Z,14.15
2023-02-06T07:20:43.169Z,14.73
2023-02-06T07:23:11.469Z,16.50
2023-02-06T07:25:39.730Z,15.95
2023-02-06T07:28:08.272Z,16.45
2023-02-06T07:30:37.074Z,15.52
2023-02-06T07:33:06.793Z,15.90
2023-02-06T07:35:36.969Z,15.02
2023-02-06T07:38:05.585Z,14.80
2023-02-06T07:40:44.812Z,15.70
2023-02-06T07:43:14.420Z,15.18
2023-02-06T07:45:43.255Z,15.60
2023-02-06T07:48:11.942Z,16.50
2023-02-06T07:50:41.632Z,16.48
2023-02-06T07:53:10.430Z,15.77
2023-02-06T07:55:39.404Z,13.68
2023-02-06T07:58:07.985Z,14.25
2023-02-06T08:00:36.824Z,14.98
2023-02-06T08:03:05.901Z,13.38
2023-02-06T08:05:35.594Z,14.18
2023-02-06T08:08:05.734Z,16.00
2023-02-06T08:10:34.269Z,14.48
2023-02-06T08:13:02.501Z,15.63
2023-02-06T08:15:30.920Z,14.23
2023-02-06T08:17:59.206Z,16.20
2023-02-06T08:20:27.977Z,15.95
2023-02-06T08:22:57.109Z,13.93
2023-02-06T08:25:27.685Z,15.00
2023-02-06T08:27:56.889Z,13.75
2023-02-06T08:30:25.971Z,14.77
2023-02-06T08:32:54.515Z,14.00
2023-02-06T08:35:22.964Z,14.98
2023-02-06T08:37:51.409Z,15.48
2023-02-06T08:40:21.371Z,14.05
2023-02-06T08:42:52.515Z,13.80
2023-02-06T08:45:21.119Z,15.07
2023-02-06T08:47:49.691Z,13.20
2023-02-06T08:50:18.145Z,14.85
2023-02-06T08:52:46.659Z,13.90
2023-02-06T08:55:15.155Z,14.35
2023-02-06T08:57:43.707Z,15.23
2023-02-06T09:00:15.320Z,14.90
2023-02-06T09:02:43.872Z,15.05
2023-02-06T09:05:12.891Z,16.40
2023-02-06T09:07:43.747Z,15.13
2023-02-06T09:10:26.706Z,14.85
2023-02-06T09:12:55.873Z,14.90
2023-02-06T09:15:25.977Z,14.30
2023-02-06T09:17:54.429Z,14.70
2023-02-06T09:20:22.817Z,15.80
2023-02-06T09:22:51.080Z,15.23
2023-02-06T09:25:19.946Z,14.55
2023-02-06T09:27:48.324Z,14.40
2023-02-06T09:30:17.223Z,12.55
2023-02-06T09:32:47.128Z,12.95
2023-02-06T09:35:15.709Z,14.73
2023-02-06T09:37:44.278Z,13.05
2023-02-06T09:40:15.786Z,16.00
2023-02-06T09:42:44.897Z,13.10
2023-02-06T09:45:16.461Z,14.57
2023-02-06T09:47:49.415Z,15.05
2023-02-06T09:50:25.272Z,14.57
2023-02-06T09:53:04.748Z,17.42
2023-02-06T09:55:40.068Z,16.98
2023-02-06T09:58:19.372Z,15.90
2023-02-06T10:00:54.736Z,16.17
2023-02-06T10:03:48.071Z,16.02
2023-02-06T10:06:21.095Z,15.73
2023-02-06T10:08:59.053Z,15.38
2023-02-06T10:11:39.058Z,15.68
2023-02-06T10:14:12.453Z,14.35
2023-02-06T10:16:45.584Z,14.20
2023-02-06T10:19:23.590Z,14.68
2023-02-06T10:21:57.614Z,13.52
2023-02-06T10:24:35.464Z,12.77
2023-02-06T10:27:10.358Z,13.77
2023-02-06T10:29:40.558Z,12.82
2023-02-06T10:32:24.758Z,11.30
2023-02-06T10:35:25.986Z,11.15
2023-02-06T10:38:10.261Z,10.63
2023-02-06T10:40:48.798Z,11.80
2023-02-06T10:43:26.257Z,12.27
2023-02-06T10:46:08.194Z,11.27
2023-02-06T10:51:19.780Z,11.45
2023-02-06T10:53:53.110Z,13.75
2023-02-06T10:56:26.750Z,12.63
2023-02-06T10:58:59.688Z,13.25
2023-02-06T11:01:33.211Z,14.48
2023-02-06T11:04:06.830Z,14.10
2023-02-06T11:06:37.381Z,13.30
2023-02-06T11:09:05.793Z,13.07
2023-02-06T11:11:40.171Z,13.63
2023-02-06T11:14:15.590Z,13.32
2023-02-06T11:16:46.525Z,12.77
2023-02-06T11:19:21.322Z,13.38
2023-02-06T11:22:08.625Z,14.27
2023-02-06T11:24:38.416Z,14.23
2023-02-06T11:27:16.052Z,13.85
2023-02-06T11:29:48.053Z,13.93
2023-02-06T11:32:31.190Z,12.02
2023-02-06T11:35:02.858Z,12.40
2023-02-06T11:37:36.570Z,12.05
2023-02-06T11:40:27.397Z,11.75
2023-02-06T11:43:16.019Z,11.65
2023-02-06T11:45:45.603Z,12.68
2023-02-06T11:48:36.513Z,12.10
2023-02-06T11:51:05.999Z,12.30
2023-02-06T11:53:36.620Z,12.23
2023-02-06T11:56:08.258Z,11.43
2023-02-06T11:58:37.229Z,13.13
2023-02-06T12:01:09.708Z,13.70
2023-02-06T12:03:46.368Z,10.65
2023-02-06T12:06:18.794Z,9.43
2023-02-06T12:08:51.594Z,8.35
2023-02-06T12:11:25.166Z,8.55
2023-02-06T12:13:57.305Z,7.70
2023-02-06T12:16:26.297Z,8.05
2023-02-06T12:18:58.417Z,8.10
2023-02-06T12:21:35.417Z,8.35
2023-02-06T12:24:15.188Z,7.15
2023-02-06T12:26:44.571Z,7.28
2023-02-06T12:29:20.762Z,7.80
2023-02-06T12:31:54.269Z,8.40
2023-02-06T12:34:28.157Z,9.00
2023-02-06T12:37:11.029Z,8.88
2023-02-06T12:39:43.099Z,9.30
2023-02-06T12:42:33.884Z,9.50
2023-02-06T12:45:09.016Z,9.40
2023-02-06T12:47:43.473Z,10.23
2023-02-06T12:50:16.960Z,9.35
2023-02-06T12:52:50.709Z,8.85
2023-02-06T12:55:25.032Z,9.52
2023-02-06T12:57:55.141Z,9.02
2023-02-06T13:01:02.123Z,9.45
2023-02-06T13:03:34.438Z,9.25
2023-02-06T13:06:13.203Z,8.70
2023-02-06T13:08:46.324Z,9.45
2023-02-06T13:11:28.975Z,9.00
2023-02-06T13:14:04.831Z,9.50
2023-02-06T13:16:44.088Z,9.82
2023-02-06T13:19:32.998Z,9.07
2023-02-06T13:22:32.421Z,9.10
2023-02-06T13:25:23.121Z,11.20
2023-02-06T13:27:53.257Z,8.80
2023-02-06T13:30:50.168Z,13.73
2023-02-06T13:33:21.246Z,10.50
2023-02-06T13:35:57.814Z,10.52
2023-02-06T13:38:30.566Z,10.95
2023-02-06T13:43:50.794Z,10.88
2023-02-06T13:46:23.017Z,10.60
2023-02-06T13:49:11.972Z,9.70
2023-02-06T13:52:05.139Z,8.38
2023-02-06T13:55:13.663Z,8.55
2023-02-06T13:57:55.915Z,7.68
2023-02-06T14:00:30.368Z,8.05
2023-02-06T14:03:07.195Z,7.70
2023-02-06T14:05:49.706Z,8.07
2023-02-06T14:08:25.040Z,7.55
2023-02-06T14:11:28.757Z,7.55
2023-02-06T14:14:24.914Z,7.63
2023-02-06T14:17:06.248Z,8.52
2023-02-06T14:19:42.700Z,7.95
2023-02-06T14:22:23.243Z,8.00
2023-02-06T14:25:06.606Z,8.95
2023-02-06T14:27:51.846Z,8.32
2023-02-06T14:30:30.857Z,7.40
2023-02-06T14:33:12.225Z,7.30
2023-02-06T14:35:54.713Z,7.05
2023-02-06T14:38:41.142Z,7.28
2023-02-06T14:41:09.969Z,7.78
2023-02-06T14:43:42.049Z,8.45
2023-02-06T14:46:16.726Z,7.53
2023-02-06T14:48:50.451Z,7.78
2023-02-06T14:51:28.540Z,7.65
2023-02-06T14:53:59.111Z,7.78
2023-02-06T14:56:31.588Z,7.47
2023-02-06T14:59:15.482Z,7.95
2023-02-06T15:01:47.971Z,8.07
2023-02-06T15:04:21.987Z,7.15
2023-02-06T15:06:55.738Z,6.72
2023-02-06T15:09:27.922Z,7.38
2023-02-06T15:11:59.182Z,7.85
2023-02-06T15:14:30.103Z,7.55
2023-02-06T15:17:00.275Z,7.67
2023-02-06T15:19:31.443Z,7.22
2023-02-06T15:22:02.772Z,8.48
2023-02-06T15:25:05.774Z,7.13
2023-02-06T15:27:36.621Z,8.68
2023-02-06T15:30:21.748Z,8.32
2023-02-06T15:32:53.220Z,8.63
2023-02-06T15:35:25.585Z,8.23
2023-02-06T15:37:55.677Z,8.27
2023-02-06T15:40:29.892Z,9.02
2023-02-06T15:42:59.986Z,9.85
2023-02-06T15:45:32.192Z,9.32
2023-02-06T15:48:11.590Z,11.18
2023-02-06T15:50:41.371Z,9.75
2023-02-06T15:53:19.543Z,9.20
2023-02-06T15:55:56.529Z,10.32
2023-02-06T15:58:26.064Z,10.48
2023-02-06T16:00:56.764Z,12.32
2023-02-06T16:03:28.358Z,11.10
2023-02-06T16:05:59.518Z,11.73
2023-02-06T16:08:32.143Z,12.18
2023-02-06T16:11:04.132Z,12.73
2023-02-06T16:13:33.596Z,12.60
2023-02-06T16:16:05.086Z,14.32
2023-02-06T16:21:21.450Z,11.68
2023-02-06T16:23:53.202Z,11.48
2023-02-06T16:26:24.106Z,11.93
2023-02-06T16:28:59.314Z,10.85
2023-02-06T16:31:29.643Z,19.38
2023-02-06T16:34:03.456Z,21.98
2023-02-06T16:36:34.350Z,21.88
2023-02-06T16:39:04.667Z,20.75
2023-02-06T16:41:37.627Z,18.90
2023-02-06T16:44:15.202Z,22.33
2023-02-06T16:46:44.230Z,22.15
2023-02-06T16:49:14.446Z,21.95
2023-02-06T16:51:47.904Z,23.27
2023-02-06T16:54:29.107Z,21.23
2023-02-06T16:57:02.674Z,23.25
2023-02-06T16:59:31.026Z,21.13
2023-02-06T17:01:59.397Z,19.92
2023-02-06T17:04:27.820Z,21.50
2023-02-06T17:06:58.202Z,18.40
2023-02-06T17:09:26.542Z,17.75
2023-02-06T17:11:55.164Z,17.80
2023-02-06T17:14:23.959Z,17.05
2023-02-06T17:16:52.489Z,14.88
2023-02-06T17:19:22.256Z,16.75
2023-02-06T17:21:50.579Z,17.90
2023-02-06T17:24:20.087Z,18.70
2023-02-06T17:26:48.515Z,17.25
2023-02-06T17:29:17.097Z,18.48
2023-02-06T17:31:45.965Z,18.95
2023-02-06T17:34:14.512Z,18.10
2023-02-06T17:36:43.379Z,19.05
2023-02-06T17:39:13.335Z,17.95
2023-02-06T17:41:42.876Z,18.17
2023-02-06T17:44:11.790Z,19.35
2023-02-06T17:46:40.674Z,19.55
2023-02-06T17:49:09.068Z,17.02
2023-02-06T17:51:37.453Z,17.27
2023-02-06T17:54:06.600Z,17.80
2023-02-06T17:56:35.484Z,18.60
2023-02-06T17:59:05.546Z,19.45
2023-02-06T18:01:34.467Z,17.13
2023-02-06T18:04:04.380Z,18.25
2023-02-06T18:06:34.950Z,18.88
2023-02-06T18:09:04.056Z,21.17
2023-02-06T18:11:32.602Z,21.30
2023-02-06T18:14:00.963Z,18.77
2023-02-06T18:16:30.893Z,18.52
2023-02-06T18:19:02.559Z,19.65
2023-02-06T18:21:31.682Z,19.13
2023-02-06T18:24:00.215Z,19.48
2023-02-06T18:26:28.755Z,18.45
2023-02-06T18:28:57.223Z,18.15
2023-02-06T18:31:28.610Z,18.67
2023-02-06T18:33:58.921Z,21.70
2023-02-06T18:36:28.376Z,21.13
2023-02-06T18:38:57.671Z,20.92
2023-02-06T18:41:43.392Z,20.27
2023-02-06T18:44:12.527Z,19.30
2023-02-06T18:46:40.976Z,21.48
2023-02-06T18:49:10.738Z,20.33
2023-02-06T18:51:39.080Z,19.33
2023-02-06T18:54:10.023Z,17.27
2023-02-06T18:56:39.052Z,19.90
2023-02-06T18:59:07.808Z,18.65
2023-02-06T19:01:36.500Z,18.63
2023-02-06T19:04:06.447Z,16.90
2023-02-06T19:06:37.863Z,18.67
2023-02-06T19:09:08.089Z,17.73
2023-02-06T19:11:37.516Z,18.35
2023-02-06T19:14:07.836Z,20.13
2023-02-06T19:16:38.563Z,17.93
2023-02-06T19:19:07.917Z,16.27
2023-02-06T19:21:38.047Z,17.50
2023-02-06T19:24:07.504Z,19.75
2023-02-06T19:26:35.902Z,22.17
2023-02-06T19:29:05.121Z,21.52
2023-02-06T19:31:33.355Z,20.00
2023-02-06T19:34:02.434Z,18.83
2023-02-06T19:36:31.969Z,17.52
2023-02-06T19:39:03.680Z,17.42
2023-02-06T19:41:34.757Z,15.43
2023-02-06T19:44:06.248Z,15.40
2023-02-06T19:46:35.642Z,14.90
2023-02-06T19:49:05.769Z,15.02
2023-02-06T19:51:38.209Z,14.43
2023-02-06T19:54:08.577Z,13.40
2023-02-06T19:56:40.834Z,13.10
2023-02-06T19:59:18.209Z,14.13
2023-02-06T20:01:47.818Z,11.90
2023-02-06T20:04:17.094Z,12.52
2023-02-06T20:06:45.640Z,11.20
2023-02-06T20:09:16.959Z,10.75
2023-02-06T20:11:46.310Z,11.48
2023-02-06T20:14:14.766Z,9.82
2023-02-06T20:16:44.206Z,10.68
2023-02-06T20:19:15.654Z,11.77
2023-02-06T20:21:46.298Z,10.90
2023-02-06T20:24:20.928Z,9.48
2023-02-06T20:26:51.121Z,10.52
2023-02-06T20:29:21.947Z,11.52
2023-02-06T20:31:51.325Z,11.98
2023-02-06T20:34:20.405Z,11.82
2023-02-06T20:36:49.515Z,12.73
2023-02-06T20:39:19.677Z,12.93
2023-02-06T20:41:49.693Z,13.45
2023-02-06T20:44:19.413Z,12.48
2023-02-06T20:46:48.055Z,13.82
2023-02-06T20:49:19.799Z,13.35
2023-02-06T20:51:49.963Z,14.60
2023-02-06T20:54:21.032Z,18.17
2023-02-06T20:56:49.838Z,19.00
2023-02-06T20:59:20.377Z,19.77
2023-02-06T21:01:48.953Z,19.60
2023-02-06T21:04:18.250Z,19.15
2023-02-06T21:06:48.047Z,18.67
2023-02-06T21:09:17.245Z,18.58
2023-02-06T21:11:50.230Z,17.13
2023-02-06T21:14:19.415Z,17.10
2023-02-06T21:16:48.427Z,17.00
2023-02-06T21:19:19.609Z,15.77
2023-02-06T21:21:48.455Z,15.15
2023-02-06T21:24:18.169Z,17.95
2023-02-06T21:26:48.483Z,19.58
2023-02-06T21:29:17.590Z,17.75
2023-02-06T21:31:46.701Z,20.13
2023-02-06T21:34:17.912Z,21.60
2023-02-06T21:36:47.429Z,23.73
2023-02-06T21:39:18.454Z,20.08
2023-02-06T21:41:51.885Z,16.33
2023-02-06T21:44:20.799Z,17.48
2023-02-06T21:46:49.275Z,18.27
2023-02-06T21:49:17.563Z,18.35
2023-02-06T21:51:46.189Z,17.10
2023-02-06T21:54:14.494Z,17.27
2023-02-06T21:56:43.307Z,22.52
2023-02-06T21:59:14.100Z,23.05
2023-02-06T22:01:42.805Z,17.52
2023-02-06T22:04:12.592Z,17.13
2023-02-06T22:06:41.377Z,16.15
2023-02-06T22:09:15.331Z,15.75
2023-02-06T22:11:45.132Z,17.60
2023-02-06T22:14:17.932Z,16.08
2023-02-06T22:16:47.315Z,16.63
2023-02-06T22:19:17.336Z,16.05
2023-02-06T22:21:46.163Z,16.70
2023-02-06T22:24:14.993Z,19.55
2023-02-06T22:26:43.903Z,19.63
2023-02-06T22:29:16.279Z,22.42
2023-02-06T22:31:45.835Z,25.67
2023-02-06T22:34:17.917Z,29.85
2023-02-06T22:36:46.970Z,25.10
2023-02-06T22:39:16.978Z,25.70
2023-02-06T22:41:46.916Z,25.00
2023-02-06T22:44:17.937Z,23.67
2023-02-06T22:46:48.525Z,22.50
2023-02-06T22:49:17.348Z,20.97
2023-02-06T22:51:46.393Z,24.95
2023-02-06T22:54:15.819Z,24.98
2023-02-06T22:56:44.904Z,25.65
2023-02-06T22:59:18.000Z,23.73
2023-02-06T23:01:48.132Z,22.48
2023-02-06T23:04:18.329Z,25.30
2023-02-06T23:06:47.236Z,26.60
2023-02-06T23:09:18.076Z,26.70
2023-02-06T23:11:47.091Z,25.00
2023-02-06T23:14:18.773Z,26.83
2023-02-06T23:16:48.553Z,24.52
2023-02-06T23:19:18.789Z,26.33
2023-02-06T23:21:49.158Z,22.98
2023-02-06T23:24:17.580Z,25.38
2023-02-06T23:26:48.205Z,26.45
2023-02-06T23:29:19.169Z,25.80
2023-02-06T23:31:48.690Z,23.85
2023-02-06T23:34:18.500Z,21.40
2023-02-06T23:36:47.327Z,22.00
2023-02-06T23:39:15.558Z,18.35
2023-02-06T23:41:43.916Z,22.00
2023-02-06T23:44:12.788Z,19.58
2023-02-06T23:46:42.662Z,20.15
2023-02-06T23:49:11.223Z,21.58
2023-02-06T23:51:39.764Z,20.92
2023-02-06T23:54:09.406Z,20.65
2023-02-06T23:56:38.496Z,19.88
2023-02-06T23:59:07.810Z,17.45
